Huvudsida
METAR-TAF:

METAR-TAF

Flygplatser :

N'Djamena, Tchad

latitud: 12-08N, longitud: 015-02E, höjd: 295 m

Aktuellt väderrapport

Denna rapport gjordes för 1 timme och 7 minuter sedan, klockan 03:00 UTC
Vind 6 kt från nord
Temperatur 18°C
Fuktighet 19%
Tryck 1016 hPa
Sikt: 2000 m
utbrett stoft

METAR: FTTJ 160300Z 36006KT 2000 DU NSC 18/M06 Q1016 NOSIG

Tid: 05:07 (04:07 UTC)

Väderprognos

Denna rapport gjordes för 5 timmar och 7 minuter sedan, klockan 23:00 UTC
Prognos gäller från 16 kl. 00 UTC till 17 kl. 06 UTC
Vind 10 kt från nord
Sikt: 0800 m
utbrett stoft
Blir
från 16 kl. 03 UTC till 16 kl. 05 UTC
Sikt: 1400 m
Blir
från 16 kl. 08 UTC till 16 kl. 10 UTC
Sikt: 3500 m

TAF: FTTJ 152300Z 1600/1706 36010KT 0800 DU NSC BECMG 1603/1605 1400 BECMG 1608/1610 3500

Aktuella väderrapporter och prognoser från 4000 flygplatser (METAR- och TAF-rapporter).

De tillgängliga stationerna syns som gula och röda prickar på kartan.

För musen över prickarna för att se namnen på stationerna.

Klicka sedan för att få väderrapporter och prognoser.

För att ändra kartan: Klicka på de gröna knapparna med ett svart kors på för att zooma in; den gröna knappen med ett streck på för att zooma ut; eller på de gröna pilarna för angränsande kartor.


METAR-TAF: